x

Cape Elizabeth- 45nm Nw Of Aberdeen, Wa (46041) Wave Buoy

4:50 - Tue 5th May 2015 All times are PDT. -7 hours from GMT.

  • Sig Wave height 9.8ft
  • Swell Direction
  • Peak Period 12s
  • Average Period 8s
  • Wind
    13mph, 18mph gusts
  • Sea Temp 53°f
  • Luft Temp 49°f
  • Sea Pressure 1014.8mb
  • Cape Elizabeth- 45nm Nw Of Aberdeen, Wa
  • Cape Elizabeth- 45nm Nw Of Aberdeen, Wa

More Historic Weather Station data

Upgrade to MSW Pro to gain access to the past 30 days of data for over 8000 Wavebouys and Weather Stations around the globe.

Join Pro

Comparision Forecast

View Surf forecast
   
Di 05/05 4:50 10ft 12s 8s 13 18 mph 1014.8mb 53f 49f
3:50 9.5ft 11s 8s 16 20 mph 1014.5mb 53f 51f
2:50 9ft 13s 8s 13 18 mph 1014.4mb 53f 50f
1:50 9.5ft 14s 8s 20 27 mph 1014.6mb 53f 47f
12:50 8ft 13s 8s 13 16 mph 1014.5mb 53f 51f
Mo 05/04 11:50 8.5ft 13s 8s 16 18 mph 1014.3mb 53f 50f
10:50 8.5ft 14s 8s 16 20 mph 1014.4mb 53f 52f
9:50 9ft 14s 8s 16 18 mph 1014.6mb 53f 52f
8:50 7ft 15s 7s 16 18 mph 1014.3mb 53f 53f
7:50 7ft 15s 7s 16 22 mph 1014.5mb 53f 53f
6:50 6.5ft 14s 7s 11 13 mph 1014.8mb 53f 53f
5:50 7ft 15s 8s 16 18 mph 1014.9mb 54f 52f
4:50 6ft 15s 8s 13 18 mph 1015mb 53f 52f
3:50 7ft 15s 8s 13 16 mph 1015.2mb 53f 50f
2:50 5ft 16s 6s 18 20 mph 1015.1mb 53f 51f
1:50 5ft 16s 7s 13 16 mph 1014.8mb 53f 50f
12:50 4ft 16s 6s 20 25 mph 1014.7mb 53f 51f
11:50 4ft 16s 6s 16 22 mph 1014.5mb 53f 52f
10:50 3.5ft 16s 6s 13 16 mph 1013.9mb 53f 52f
9:50 3.5ft 17s 6s 11 13 mph 1013.9mb 53f 51f
8:50 3.5ft 10s 6s 9 16 mph 1013.8mb 53f 51f
7:50 4ft 17s 6s 9
mph
1013.7mb 53f 51f
6:50 4ft 10s 6s 9 11 mph 1013.3mb 53f 51f
5:50 4ft 9s 6s 7 11 mph 1013mb 53f 50f
4:50 4ft 8s 6s 4 9 mph 1013mb 53f 50f
3:50 4.5ft 9s 6s 7 9 mph 1013mb 52f 50f
2:50 4.5ft 10s 6s 9 13 mph 1012.9mb 52f 50f
1:50 5ft 9s 6s 9 13 mph 1012.8mb 53f 50f
12:50 5ft 10s 6s 11 13 mph 1013mb 53f 50f
So 05/03 11:50 5.5ft 10s 6s 11 13 mph 1012.9mb 53f 51f
10:50 5ft 10s 6s 13
mph
1013mb 53f 51f
9:50 5ft 10s 6s 13 16 mph 1013.4mb 53f 51f
8:50 5.5ft 9s 6s 13 16 mph 1013.4mb 53f 51f
7:50 5.5ft 11s 6s 16 18 mph 1013.6mb 53f 51f
6:50 5.5ft 11s  -  16 18 mph 1014.1mb 53f 52f
5:50 5ft 11s 6s 16 18 mph 1014.3mb 53f 52f
4:50 5.5ft 11s 7s 16 18 mph 1014.6mb 53f 52f
3:50 6ft 11s 7s 16 18 mph 1015.3mb 53f 52f
2:50 6ft 9s 7s 13 16 mph 1015.8mb 54f 51f
1:50 6ft 11s 7s 11 13 mph 1016mb 54f 51f
12:50 6ft 11s 7s 7 9 mph 1016.5mb 54f 51f
11:50 7.5ft 10s 7s 7 9 mph 1016.8mb 53f 51f
10:50 7ft 11s 7s 7 9 mph 1016.8mb 53f 51f
9:50 6ft 11s 7s  -  2 mph 1016.7mb 53f 51f
8:50 7ft 11s 7s 4 7 mph 1016.6mb 52f 51f
7:50 7ft 11s 7s 9 13 mph 1016.8mb 52f 51f
6:50 7ft 11s 7s 11 13 mph 1016.5mb 52f 51f
5:50 6ft 11s 7s 11 16 mph 1016.2mb 52f 51f
4:50 6.5ft 11s 7s 13 16 mph 1016.2mb 52f 51f
3:50 7ft 11s 7s 16 18 mph 1016.1mb 53f 51f
2:50 6ft 11s 6s 16 18 mph 1016.3mb 53f 51f
1:50 6.5ft 11s 6s 16 18 mph 1016.5mb 53f 51f
12:50 8ft 11s 7s 18 20 mph 1016.5mb 53f 51f
Sa 05/02 11:50 8ft 12s 7s 18 20 mph 1016.6mb 53f 51f
10:50 8ft 12s 7s 20 22 mph 1016.6mb 53f 51f
9:50 7.5ft 12s 7s 20 25 mph 1016.8mb 53f 51f
8:50 8.5ft 11s 7s 20 25 mph 1016.6mb 53f 52f
7:50 8.5ft 11s 7s 18 22 mph 1016.9mb 53f 52f
6:50 8ft 11s 7s 20 22 mph 1017.2mb 53f 52f
5:50 8.5ft 11s 7s 20 22 mph 1017.7mb 53f 52f
4:50 7.5ft 11s 7s 18 22 mph 1017.8mb 53f 51f
3:50 7.5ft 11s 7s 16 20 mph 1018.4mb 52f 51f
2:50 7.5ft 11s 7s 16 18 mph 1018.8mb 52f 51f
1:50 7ft 10s 7s 16 18 mph 1019mb 52f 51f
12:50 6.5ft 8s 7s 13 16 mph 1019.2mb 52f 51f
11:50 7ft 11s 7s 13 16 mph 1019.5mb 52f 51f
10:50 8ft 8s 7s 11 13 mph 1019.4mb 52f 51f
9:50 7ft 11s 7s 13 16 mph 1019.4mb 52f 51f
8:50 8ft 11s 7s 13 16 mph 1019.1mb 52f 51f
7:50 8.5ft 9s 7s 16 18 mph 1019mb 52f 51f
6:50 8ft 8s 7s 16 18 mph 1018.8mb 52f 51f
5:50 8ft 9s 7s 16 18 mph 1018.5mb 52f 51f
4:50 7.5ft 9s 6s 16 20 mph 1018.3mb 53f 51f
3:50 7.5ft 10s 6s 18 20 mph 1018.2mb 53f 51f
2:50 7.5ft 9s 6s 18 20 mph 1018.4mb 53f 51f
1:50 7.5ft 11s 6s 18 22 mph 1018.5mb 53f 51f
12:50 7ft 10s 6s 20 25 mph 1018.6mb 53f 51f
Fr 05/01 11:50 7ft 10s 6s 22 27 mph 1018.7mb 53f 50f
10:50 7ft 11s 6s 25 29 mph 1018.8mb 54f 51f
9:50 6.5ft 11s 6s 22 27 mph 1018.9mb 54f 51f
8:50 6ft 11s 5s 22 25 mph 1018.6mb 53f 51f
7:50 6.5ft 11s 6s 25 29 mph 1018.4mb 54f 52f
6:50 6ft 11s 6s 22 25 mph 1018.7mb 53f 52f
5:50 6ft 9s 7s 18 20 mph 1019.1mb 53f 52f
4:50 6ft 11s 7s 16 20 mph 1019.2mb 54f 53f
3:50 6.5ft 11s 7s 16 20 mph 1019.4mb 54f 53f
1:50 7ft 10s 7s 16 20 mph 1019.6mb 53f 52f